createdAt,value
2023-08-15T00:02:25.703Z,100918.91
2023-08-15T00:05:29.387Z,100931.69
2023-08-15T00:08:38.252Z,100929.53
2023-08-15T00:11:41.938Z,100927.56
2023-08-15T00:14:45.437Z,100921.63
2023-08-15T00:17:48.340Z,100925.63
2023-08-15T00:20:51.932Z,100922.72
2023-08-15T00:23:55.532Z,100923.19
2023-08-15T00:26:59.008Z,100914.47
2023-08-15T00:30:01.910Z,100919.47
2023-08-15T00:33:07.419Z,100914.88
2023-08-15T00:36:10.427Z,100912.47
2023-08-15T00:39:13.376Z,100916.50
2023-08-15T00:42:16.392Z,100907.69
2023-08-15T00:45:19.407Z,100906.53
2023-08-15T00:48:24.149Z,100916.50
2023-08-15T00:51:28.407Z,100915.34
2023-08-15T00:54:33.160Z,100917.00
2023-08-15T00:57:36.133Z,100921.13
2023-08-15T01:00:40.321Z,100914.06
2023-08-15T01:03:43.363Z,100915.06
2023-08-15T01:06:46.983Z,100916.47
2023-08-15T01:09:50.189Z,100928.94
2023-08-15T01:13:19.557Z,100919.94
2023-08-15T01:16:29.739Z,100913.47
2023-08-15T01:19:44.552Z,100914.41
2023-08-15T01:22:52.090Z,100923.88
2023-08-15T01:25:56.686Z,100914.16
2023-08-15T01:29:00.530Z,100912.66
2023-08-15T01:32:30.566Z,100920.13
2023-08-15T01:35:45.103Z,100920.75
2023-08-15T01:38:55.516Z,100921.91
2023-08-15T01:42:02.569Z,100923.50
2023-08-15T01:45:07.781Z,100913.28
2023-08-15T01:48:10.835Z,100915.41
2023-08-15T01:51:14.853Z,100906.66
2023-08-15T01:54:18.660Z,100910.88
2023-08-15T01:57:22.453Z,100915.16
2023-08-15T02:00:25.786Z,100917.72
2023-08-15T02:03:28.691Z,100916.03
2023-08-15T02:06:31.631Z,100921.72
2023-08-15T02:09:35.124Z,100915.59
2023-08-15T02:12:39.145Z,100917.63
2023-08-15T02:15:42.155Z,100916.38
2023-08-15T02:18:45.547Z,100914.69
2023-08-15T02:21:48.458Z,100907.41
2023-08-15T02:24:52.244Z,100907.75
2023-08-15T02:27:55.574Z,100911.06
2023-08-15T02:30:59.337Z,100907.22
2023-08-15T02:34:02.340Z,100910.16
2023-08-15T02:37:05.708Z,100905.00
2023-08-15T02:40:11.172Z,100913.69
2023-08-15T02:43:14.597Z,100912.13
2023-08-15T02:46:18.529Z,100911.31
2023-08-15T02:49:21.846Z,100916.75
2023-08-15T02:52:25.617Z,100918.50
2023-08-15T02:55:28.522Z,100919.56
2023-08-15T02:58:32.111Z,100924.03
2023-08-15T03:01:35.923Z,100918.66
2023-08-15T03:04:39.606Z,100914.75
2023-08-15T03:07:42.937Z,100927.81
2023-08-15T03:10:46.662Z,100920.31
2023-08-15T03:13:50.220Z,100925.47
2023-08-15T03:16:54.263Z,100916.69
2023-08-15T03:19:58.536Z,100920.03
2023-08-15T03:23:02.182Z,100909.00
2023-08-15T03:26:06.670Z,100913.50
2023-08-15T03:29:12.445Z,100914.28
2023-08-15T03:32:16.670Z,100918.69
2023-08-15T03:35:22.738Z,100917.03
2023-08-15T03:38:26.165Z,100915.16
2023-08-15T03:41:29.286Z,100921.06
2023-08-15T03:44:32.192Z,100921.31
2023-08-15T03:47:35.035Z,100913.22
2023-08-15T03:50:39.729Z,100923.47
2023-08-15T03:53:44.623Z,100921.16
2023-08-15T03:56:47.597Z,100921.25
2023-08-15T03:59:50.475Z,100921.16
2023-08-15T04:02:55.756Z,100920.84
2023-08-15T04:05:59.482Z,100932.63
2023-08-15T04:09:03.030Z,100938.09
2023-08-15T04:12:06.663Z,100932.75
2023-08-15T04:15:10.887Z,100935.16
2023-08-15T04:18:13.914Z,100944.13
2023-08-15T04:21:17.785Z,100938.81
2023-08-15T04:24:21.059Z,100934.44
2023-08-15T04:27:24.882Z,100936.88
2023-08-15T04:30:28.057Z,100941.13
2023-08-15T04:33:31.012Z,100943.16
2023-08-15T04:36:35.049Z,100942.00
2023-08-15T04:39:38.779Z,100942.78
2023-08-15T04:42:43.904Z,100939.34
2023-08-15T04:45:46.934Z,100953.13
2023-08-15T04:48:49.913Z,100951.03
2023-08-15T04:51:52.886Z,100953.44
2023-08-15T04:54:56.345Z,100944.69
2023-08-15T04:57:59.266Z,100955.09
2023-08-15T05:01:03.349Z,100949.38
2023-08-15T05:04:07.424Z,100950.81
2023-08-15T05:07:10.331Z,100957.59
2023-08-15T05:10:13.815Z,100952.38
2023-08-15T05:13:20.452Z,100958.94
2023-08-15T05:16:23.627Z,100963.38
2023-08-15T05:19:26.924Z,100965.00
2023-08-15T05:22:29.878Z,100961.00
2023-08-15T05:25:33.209Z,100958.69
2023-08-15T05:28:37.362Z,100948.03
2023-08-15T05:31:41.542Z,100960.41
2023-08-15T05:34:44.488Z,100962.28
2023-08-15T05:37:47.825Z,100963.84
2023-08-15T05:40:51.398Z,100960.09
2023-08-15T05:43:54.232Z,100963.81
2023-08-15T05:46:57.133Z,100956.41
2023-08-15T05:50:00.017Z,100965.16
2023-08-15T05:53:03.978Z,100963.13
2023-08-15T05:56:07.933Z,100967.47
2023-08-15T05:59:11.438Z,100958.59
2023-08-15T06:02:15.276Z,100966.59
2023-08-15T06:05:18.921Z,100962.03
2023-08-15T06:08:22.524Z,100965.44
2023-08-15T06:11:25.595Z,100964.75
2023-08-15T06:14:28.481Z,100961.78
2023-08-15T06:17:31.392Z,100959.50
2023-08-15T06:20:34.402Z,100964.88
2023-08-15T06:23:39.042Z,100960.00
2023-08-15T06:26:42.221Z,100959.25
2023-08-15T06:29:45.927Z,100954.78
2023-08-15T06:32:49.496Z,100953.72
2023-08-15T06:35:52.405Z,100949.13
2023-08-15T06:38:56.548Z,100951.28
2023-08-15T06:42:00.427Z,100952.19
2023-08-15T06:45:12.908Z,100960.22
2023-08-15T06:48:16.362Z,100964.34
2023-08-15T06:51:19.279Z,100959.00
2023-08-15T06:54:22.156Z,100961.06
2023-08-15T06:57:25.132Z,100963.50
2023-08-15T07:00:28.104Z,100952.94
2023-08-15T07:03:33.526Z,100955.38
2023-08-15T07:06:36.524Z,100947.00
2023-08-15T07:09:39.536Z,100950.53
2023-08-15T07:12:43.595Z,100947.75
2023-08-15T07:15:47.956Z,100949.53
2023-08-15T07:18:52.120Z,100953.25
2023-08-15T07:21:55.596Z,100941.00
2023-08-15T07:24:58.540Z,100939.44
2023-08-15T07:28:01.359Z,100936.00
2023-08-15T07:31:05.285Z,100944.28
2023-08-15T07:34:09.257Z,100947.03
2023-08-15T07:37:12.989Z,100944.75
2023-08-15T07:40:21.020Z,100949.88
2023-08-15T07:43:25.156Z,100946.22
2023-08-15T07:46:30.210Z,100939.88
2023-08-15T07:49:39.302Z,100936.69
2023-08-15T07:52:43.020Z,100941.22
2023-08-15T07:55:45.974Z,100944.91
2023-08-15T07:58:48.731Z,100935.84
2023-08-15T08:01:51.745Z,100934.53
2023-08-15T08:04:55.764Z,100935.63
2023-08-15T08:07:59.574Z,100930.06
2023-08-15T08:11:02.540Z,100936.84
2023-08-15T08:14:05.769Z,100923.81
2023-08-15T08:17:09.879Z,100930.19
2023-08-15T08:20:14.144Z,100929.81
2023-08-15T08:23:17.704Z,100923.53
2023-08-15T08:26:20.723Z,100925.13
2023-08-15T08:29:23.720Z,100925.94
2023-08-15T08:32:26.670Z,100928.81
2023-08-15T08:35:30.157Z,100920.09
2023-08-15T08:38:33.049Z,100920.50
2023-08-15T08:41:40.778Z,100924.09
2023-08-15T08:44:44.408Z,100926.09
2023-08-15T08:47:48.122Z,100925.75
2023-08-15T08:50:51.498Z,100929.31
2023-08-15T08:53:55.779Z,100921.38
2023-08-15T08:57:02.608Z,100927.31
2023-08-15T09:00:13.726Z,100916.56
2023-08-15T09:03:16.962Z,100920.94
2023-08-15T09:06:21.645Z,100911.75
2023-08-15T09:09:25.706Z,100908.91
2023-08-15T09:12:38.731Z,100908.88
2023-08-15T09:15:48.907Z,100912.81
2023-08-15T09:18:52.693Z,100907.59
2023-08-15T09:21:56.278Z,100909.97
2023-08-15T09:24:59.249Z,100893.22
2023-08-15T09:28:02.821Z,100900.75
2023-08-15T09:31:06.014Z,100894.25
2023-08-15T09:34:12.075Z,100894.31
2023-08-15T09:37:15.735Z,100896.16
2023-08-15T09:40:27.894Z,100896.50
2023-08-15T09:43:31.926Z,100893.19
2023-08-15T09:46:35.598Z,100899.56
2023-08-15T09:49:39.417Z,100889.81
2023-08-15T09:52:44.593Z,100897.84
2023-08-15T09:55:48.383Z,100893.34
2023-08-15T09:58:51.404Z,100894.34
2023-08-15T10:01:58.683Z,100885.94
2023-08-15T10:05:04.617Z,100885.78
2023-08-15T10:08:11.034Z,100883.72
2023-08-15T10:11:14.846Z,100876.66
2023-08-15T10:14:22.768Z,100890.63
2023-08-15T10:17:30.803Z,100889.72
2023-08-15T10:20:37.843Z,100889.94
2023-08-15T10:23:41.080Z,100892.94
2023-08-15T10:26:47.307Z,100891.38
2023-08-15T10:30:00.504Z,100887.41
2023-08-15T10:33:12.481Z,100886.56
2023-08-15T10:36:16.281Z,100888.28
2023-08-15T10:39:22.251Z,100880.53
2023-08-15T10:42:26.281Z,100868.97
2023-08-15T10:45:32.713Z,100868.72
2023-08-15T10:48:55.506Z,100867.19
2023-08-15T10:52:04.062Z,100867.09
2023-08-15T10:55:16.152Z,100864.78
2023-08-15T10:58:22.950Z,100858.50
2023-08-15T11:01:27.966Z,100864.78
2023-08-15T11:04:32.445Z,100859.13
2023-08-15T11:07:35.295Z,100854.06
2023-08-15T11:10:44.109Z,100863.72
2023-08-15T11:13:49.467Z,100849.63
2023-08-15T11:16:52.636Z,100853.88
2023-08-15T11:19:56.474Z,100851.25
2023-08-15T11:23:00.927Z,100857.22
2023-08-15T11:26:07.204Z,100843.03
2023-08-15T11:29:14.527Z,100841.47
2023-08-15T11:32:18.465Z,100830.69
2023-08-15T11:35:23.090Z,100829.00
2023-08-15T11:38:30.057Z,100832.72
2023-08-15T11:41:36.503Z,100834.59
2023-08-15T11:44:40.756Z,100838.94
2023-08-15T11:47:57.520Z,100843.56
2023-08-15T11:51:01.482Z,100847.22
2023-08-15T11:54:05.010Z,100834.16
2023-08-15T11:57:08.949Z,100837.50
2023-08-15T12:00:12.475Z,100827.88
2023-08-15T12:03:16.952Z,100817.25
2023-08-15T12:06:20.214Z,100810.03
2023-08-15T12:09:30.811Z,100809.81
2023-08-15T12:12:46.778Z,100805.31
2023-08-15T12:15:51.159Z,100811.31
2023-08-15T12:18:55.001Z,100813.06
2023-08-15T12:21:58.233Z,100798.50
2023-08-15T12:25:01.249Z,100792.81
2023-08-15T12:28:05.797Z,100786.22
2023-08-15T12:31:09.644Z,100795.88
2023-08-15T12:34:12.647Z,100794.59
2023-08-15T12:37:15.662Z,100787.50
2023-08-15T12:40:30.545Z,100788.09
2023-08-15T12:43:34.981Z,100782.13
2023-08-15T12:46:37.868Z,100791.53
2023-08-15T12:49:41.707Z,100791.91
2023-08-15T12:52:45.025Z,100798.94
2023-08-15T12:55:47.878Z,100786.91
2023-08-15T12:58:51.638Z,100781.03
2023-08-15T13:01:56.149Z,100778.78
2023-08-15T13:04:59.186Z,100778.84
2023-08-15T13:08:05.320Z,100780.81
2023-08-15T13:11:08.309Z,100771.94
2023-08-15T13:14:12.101Z,100762.72
2023-08-15T13:17:14.884Z,100759.19
2023-08-15T13:20:18.064Z,100757.13
2023-08-15T13:23:22.895Z,100752.63
2023-08-15T13:26:26.798Z,100754.44
2023-08-15T13:29:29.674Z,100745.03
2023-08-15T13:32:33.744Z,100733.94
2023-08-15T13:35:37.613Z,100732.91
2023-08-15T13:38:40.812Z,100730.09
2023-08-15T13:41:45.439Z,100733.97
2023-08-15T13:44:48.982Z,100734.94
2023-08-15T13:47:52.949Z,100739.00
2023-08-15T13:50:56.648Z,100734.53
2023-08-15T13:54:03.198Z,100729.16
2023-08-15T13:57:07.065Z,100729.78
2023-08-15T14:00:11.293Z,100732.16
2023-08-15T14:03:15.038Z,100732.41
2023-08-15T14:06:18.149Z,100734.19
2023-08-15T14:09:24.705Z,100723.13
2023-08-15T14:12:28.473Z,100721.59
2023-08-15T14:15:31.418Z,100725.78
2023-08-15T14:18:35.101Z,100733.19
2023-08-15T14:21:38.599Z,100733.63
2023-08-15T14:24:48.077Z,100732.72
2023-08-15T14:27:51.100Z,100728.47
2023-08-15T14:30:54.817Z,100731.22
2023-08-15T14:33:58.591Z,100721.09
2023-08-15T14:37:01.577Z,100721.56
2023-08-15T14:40:05.895Z,100714.69
2023-08-15T14:43:10.582Z,100716.19
2023-08-15T14:46:14.250Z,100710.03
2023-08-15T14:49:17.673Z,100709.22
2023-08-15T14:52:23.113Z,100702.66
2023-08-15T14:55:26.096Z,100704.06
2023-08-15T14:58:29.219Z,100706.13
2023-08-15T15:01:33.196Z,100707.25
2023-08-15T15:04:36.706Z,100695.03
2023-08-15T15:07:39.802Z,100696.56
2023-08-15T15:10:43.868Z,100695.25
2023-08-15T15:13:47.138Z,100690.25
2023-08-15T15:16:51.554Z,100692.50
2023-08-15T15:19:54.611Z,100688.06
2023-08-15T15:22:58.162Z,100696.50
2023-08-15T15:26:01.033Z,100683.53
2023-08-15T15:29:04.015Z,100688.22
2023-08-15T15:32:07.740Z,100680.69
2023-08-15T15:35:12.274Z,100684.47
2023-08-15T15:38:15.151Z,100682.59
2023-08-15T15:41:18.161Z,100679.75
2023-08-15T15:44:21.229Z,100678.53
2023-08-15T15:47:24.772Z,100673.47
2023-08-15T15:50:28.234Z,100668.41
2023-08-15T15:53:31.227Z,100663.94
2023-08-15T15:56:34.118Z,100665.50
2023-08-15T15:59:37.045Z,100666.16
2023-08-15T16:02:40.039Z,100664.50
2023-08-15T16:05:43.140Z,100661.25
2023-08-15T16:08:46.805Z,100675.03
2023-08-15T16:11:50.345Z,100675.69
2023-08-15T16:14:53.773Z,100667.72
2023-08-15T16:17:57.070Z,100670.53
2023-08-15T16:20:59.906Z,100678.97
2023-08-15T16:24:02.820Z,100680.69
2023-08-15T16:27:05.911Z,100676.81
2023-08-15T16:30:17.843Z,100678.38
2023-08-15T16:33:22.417Z,100672.16
2023-08-15T16:36:26.323Z,100666.53
2023-08-15T16:39:29.817Z,100671.56
2023-08-15T16:42:32.686Z,100679.31
2023-08-15T16:45:35.516Z,100672.84
2023-08-15T16:48:39.300Z,100683.22
2023-08-15T16:51:42.178Z,100673.41
2023-08-15T16:54:45.053Z,100679.38
2023-08-15T16:57:48.779Z,100687.25
2023-08-15T17:00:51.698Z,100686.53
2023-08-15T17:03:54.800Z,100682.09
2023-08-15T17:06:57.848Z,100673.09
2023-08-15T17:10:00.962Z,100673.34
2023-08-15T17:13:05.795Z,100678.63
2023-08-15T17:16:12.323Z,100676.88
2023-08-15T17:19:15.333Z,100675.56
2023-08-15T17:22:18.286Z,100682.84
2023-08-15T17:25:21.203Z,100687.44
2023-08-15T17:28:24.934Z,100688.53
2023-08-15T17:31:28.504Z,100692.22
2023-08-15T17:34:31.461Z,100694.66
2023-08-15T17:37:34.485Z,100685.25
2023-08-15T17:40:38.435Z,100671.44
2023-08-15T17:43:41.498Z,100678.41
2023-08-15T17:46:44.405Z,100678.22
2023-08-15T17:49:47.379Z,100680.91
2023-08-15T17:52:50.374Z,100691.63
2023-08-15T17:55:53.215Z,100702.41
2023-08-15T17:58:56.218Z,100699.66
2023-08-15T18:02:01.394Z,100701.03
2023-08-15T18:05:06.786Z,100699.34
2023-08-15T18:08:11.011Z,100703.06
2023-08-15T18:11:14.830Z,100697.03
2023-08-15T18:14:18.509Z,100705.84
2023-08-15T18:17:24.800Z,100698.38
2023-08-15T18:20:28.577Z,100711.25
2023-08-15T18:23:32.003Z,100718.31
2023-08-15T18:26:36.098Z,100727.03
2023-08-15T18:29:38.976Z,100731.47
2023-08-15T18:32:43.060Z,100740.31
2023-08-15T18:35:46.510Z,100739.38
2023-08-15T18:38:49.504Z,100744.56
2023-08-15T18:41:53.172Z,100742.25
2023-08-15T18:44:57.044Z,100740.34
2023-08-15T18:48:00.554Z,100739.81
2023-08-15T18:51:04.349Z,100724.22
2023-08-15T18:54:09.071Z,100719.41
2023-08-15T18:57:13.052Z,100719.47
2023-08-15T19:00:18.191Z,100718.81
2023-08-15T19:03:23.803Z,100714.53
2023-08-15T19:06:26.876Z,100705.47
2023-08-15T19:09:31.309Z,100706.03
2023-08-15T19:12:37.267Z,100715.66
2023-08-15T19:15:41.173Z,100712.09
2023-08-15T19:18:44.095Z,100716.97
2023-08-15T19:21:47.492Z,100723.50
2023-08-15T19:24:50.774Z,100726.38
2023-08-15T19:27:54.506Z,100732.41
2023-08-15T19:30:58.560Z,100732.81
2023-08-15T19:34:02.327Z,100741.25
2023-08-15T19:37:05.268Z,100746.13
2023-08-15T19:40:12.272Z,100750.16
2023-08-15T19:43:15.084Z,100754.59
2023-08-15T19:46:18.202Z,100751.88
2023-08-15T19:49:22.155Z,100759.91
2023-08-15T19:52:25.255Z,100757.59
2023-08-15T19:55:31.928Z,100758.81
2023-08-15T19:58:36.068Z,100763.22
2023-08-15T20:01:41.942Z,100764.47
2023-08-15T20:04:45.629Z,100767.25
2023-08-15T20:07:49.029Z,100776.00
2023-08-15T20:10:52.822Z,100785.56
2023-08-15T20:13:55.748Z,100792.31
2023-08-15T20:16:58.694Z,100789.19
2023-08-15T20:20:03.462Z,100800.75
2023-08-15T20:23:07.661Z,100801.94
2023-08-15T20:26:11.123Z,100810.69
2023-08-15T20:29:14.027Z,100812.28
2023-08-15T20:32:17.618Z,100813.06
2023-08-15T20:35:21.192Z,100812.69
2023-08-15T20:38:24.002Z,100796.34
2023-08-15T20:41:26.969Z,100797.13
2023-08-15T20:44:30.688Z,100794.72
2023-08-15T20:47:33.622Z,100797.09
2023-08-15T20:50:37.449Z,100791.94
2023-08-15T20:53:40.409Z,100791.88
2023-08-15T20:56:44.399Z,100795.91
2023-08-15T20:59:47.371Z,100802.31
2023-08-15T21:02:51.224Z,100800.34
2023-08-15T21:05:55.176Z,100805.53
2023-08-15T21:08:58.728Z,100805.50
2023-08-15T21:12:01.767Z,100783.63
2023-08-15T21:15:05.046Z,100784.81
2023-08-15T21:18:08.877Z,100793.97
2023-08-15T21:21:11.806Z,100791.59
2023-08-15T21:24:14.868Z,100793.59
2023-08-15T21:27:18.812Z,100787.63
2023-08-15T21:30:22.881Z,100786.81
2023-08-15T21:33:26.648Z,100788.00
2023-08-15T21:36:29.699Z,100788.41
2023-08-15T21:39:33.355Z,100790.41
2023-08-15T21:42:38.280Z,100794.78
2023-08-15T21:45:45.861Z,100794.38
2023-08-15T21:48:48.869Z,100805.53
2023-08-15T21:51:51.735Z,100810.72
2023-08-15T21:54:55.353Z,100817.44
2023-08-15T21:57:58.554Z,100813.88
2023-08-15T22:01:03.492Z,100814.25
2023-08-15T22:04:07.295Z,100807.13
2023-08-15T22:07:10.936Z,100799.16
2023-08-15T22:10:13.901Z,100799.94
2023-08-15T22:13:17.850Z,100815.78
2023-08-15T22:16:21.320Z,100807.84
2023-08-15T22:19:24.261Z,100807.06
2023-08-15T22:22:27.882Z,100813.00
2023-08-15T22:25:30.729Z,100811.38
2023-08-15T22:28:33.652Z,100803.00
2023-08-15T22:31:36.745Z,100802.22
2023-08-15T22:34:39.767Z,100808.19
2023-08-15T22:37:45.854Z,100809.13
2023-08-15T22:40:52.112Z,100804.78
2023-08-15T22:43:54.963Z,100799.50
2023-08-15T22:46:57.919Z,100799.53
2023-08-15T22:50:01.814Z,100802.69
2023-08-15T22:53:04.935Z,100787.94
2023-08-15T22:56:08.216Z,100791.81
2023-08-15T22:59:11.852Z,100785.38
2023-08-15T23:02:15.289Z,100792.97
2023-08-15T23:05:18.588Z,100795.47
2023-08-15T23:08:22.744Z,100791.13
2023-08-15T23:11:28.344Z,100788.28
2023-08-15T23:14:31.898Z,100788.16
2023-08-15T23:17:35.386Z,100790.63
2023-08-15T23:20:38.504Z,100783.56
2023-08-15T23:23:41.466Z,100776.78
2023-08-15T23:26:44.961Z,100776.34
2023-08-15T23:29:49.088Z,100775.47
2023-08-15T23:32:52.089Z,100778.31
2023-08-15T23:35:54.983Z,100777.88
2023-08-15T23:38:58.562Z,100783.03
2023-08-15T23:42:02.617Z,100778.97
2023-08-15T23:45:09.014Z,100780.09
2023-08-15T23:48:13.455Z,100777.72
2023-08-15T23:51:17.066Z,100779.31
2023-08-15T23:54:20.148Z,100769.75
2023-08-15T23:57:24.639Z,100776.38
